Time;durP1;ratioP1;P1;durP2;ratioP2;P2;SDS_P1;SDS_P2;PMS_P1;PMS_P2;Temp;Humidity;BMP_temperature;BMP_pressure;BME280_temperature;BME280_humidity;BME280_pressure;Samples;Min_cycle;Max_cycle;Signal;HPM_P1;HPM_P2
2021/05/26 00:01:59;;;;;;;3.10;2.00;;;;;;;19.27;79.08;97688.16;5054946;28;20263;-67
2021/05/26 00:04:26;;;;;;;3.17;1.70;;;;;;;18.92;78.95;97629.78;5051252;28;20239;-67
2021/05/26 00:06:52;;;;;;;3.37;1.63;;;;;;;19.28;78.91;97691.59;5018330;28;20235;-67
2021/05/26 00:09:19;;;;;;;2.70;1.73;;;;;;;19.28;78.88;97678.88;5049470;28;20690;-67
2021/05/26 00:11:46;;;;;;;2.03;1.80;;;;;;;19.29;78.81;97670.41;5054309;28;20220;-67
2021/05/26 00:14:12;;;;;;;2.20;1.50;;;;;;;19.28;78.64;97677.19;5051526;28;20260;-68
2021/05/26 00:16:39;;;;;;;1.93;1.73;;;;;;;19.27;78.75;97672.03;5052020;28;20627;-67
2021/05/26 00:19:07;;;;;;;1.60;1.50;;;;;;;19.23;78.59;97677.75;5048209;28;20240;-66
2021/05/26 00:21:54;;;;;;;2.80;2.00;;;;;;;19.26;78.30;97670.25;5034051;28;20722;-67
2021/05/26 00:24:20;;;;;;;1.70;1.60;;;;;;;19.26;78.60;97675.34;5056639;28;20630;-67
2021/05/26 00:26:47;;;;;;;3.77;1.83;;;;;;;16.81;78.50;97260.53;5050452;28;20235;-67
2021/05/26 00:29:14;;;;;;;2.07;1.70;;;;;;;19.25;78.90;97673.59;5036642;28;20634;-67
2021/05/26 00:31:40;;;;;;;1.70;1.43;;;;;;;19.25;78.44;97673.59;5049948;28;20248;-67
2021/05/26 00:34:07;;;;;;;2.20;1.70;;;;;;;19.24;78.78;97670.19;5051161;28;20630;-68
2021/05/26 00:36:34;;;;;;;1.83;1.53;;;;;;;19.25;78.76;97669.41;5046844;28;20500;-67
2021/05/26 00:39:00;;;;;;;3.53;1.90;;;;;;;19.24;79.43;97659.09;5051419;28;20562;-67
2021/05/26 00:41:28;;;;;;;2.23;1.50;;;;;;;19.25;78.73;97659.19;5048955;28;20224;-67
2021/05/26 00:43:55;;;;;;;2.67;1.60;;;;;;;19.26;78.49;97648.19;5050871;28;20228;-68
2021/05/26 00:46:21;;;;;;;3.70;1.70;;;;;;;18.71;78.71;97549.13;5032636;28;20201;-68
2021/05/26 00:48:48;;;;;;;1.77;1.60;;;;;;;19.26;78.72;97644.75;5031589;28;20291;-67
2021/05/26 00:51:15;;;;;;;2.17;1.70;;;;;;;15.35;78.17;97005.50;5034364;28;20220;-67
2021/05/26 00:53:41;;;;;;;3.10;1.93;;;;;;;19.09;78.71;97610.09;5048916;28;20216;-67
2021/05/26 00:56:08;;;;;;;2.27;1.53;;;;;;;15.75;77.87;97034.38;5050845;28;20233;-67
2021/05/26 00:58:35;;;;;;;2.30;1.60;;;;;;;19.10;78.46;97607.59;5035880;28;20201;-67
2021/05/26 01:01:01;;;;;;;1.90;1.53;;;;;;;19.28;77.86;97645.75;5028952;28;20503;-67
2021/05/26 01:03:28;;;;;;;1.80;1.60;;;;;;;19.28;78.12;97638.97;5050623;28;20229;-67
2021/05/26 01:05:55;;;;;;;2.33;1.70;;;;;;;19.26;78.25;97632.91;5046885;28;20292;-67
2021/05/26 01:08:21;;;;;;;2.63;1.70;;;;;;;15.14;77.56;96992.75;5047058;28;20229;-67
2021/05/26 01:10:48;;;;;;;2.00;1.80;;;;;;;19.25;77.95;97628.63;5048350;28;20278;-67
2021/05/26 01:13:15;;;;;;;1.70;1.47;;;;;;;19.26;78.03;97624.38;5045246;28;20714;-68
2021/05/26 01:15:41;;;;;;;2.20;1.60;;;;;;;19.25;78.72;97617.56;5046246;28;20250;-67
2021/05/26 01:18:24;;;;;;;1.73;1.53;;;;;;;19.25;78.18;97633.72;5047354;28;20229;-67
2021/05/26 01:20:52;;;;;;;1.97;1.50;;;;;;;19.25;78.25;97627.75;5033346;28;20296;-67
2021/05/26 01:23:19;;;;;;;2.03;1.53;;;;;;;19.25;78.36;97627.75;5053172;28;20677;-68
2021/05/26 01:25:47;;;;;;;1.43;1.33;;;;;;;18.90;78.04;97574.53;5049681;28;20209;-68
2021/05/26 01:28:14;;;;;;;2.70;1.30;;;;;;;18.90;78.02;97562.66;5032723;28;20205;-67
2021/05/26 01:30:41;;;;;;;2.17;1.40;;;;;;;19.25;77.88;97617.56;4999105;28;20205;-67
2021/05/26 01:33:07;;;;;;;1.70;1.60;;;;;;;19.26;77.58;97619.28;5052396;28;20260;-67
2021/05/26 01:35:34;;;;;;;1.57;1.47;;;;;;;19.25;77.99;97610.78;5047760;28;20201;-67
2021/05/26 01:38:00;;;;;;;1.30;1.20;;;;;;;19.25;77.86;97613.34;5045925;28;20228;-67
2021/05/26 01:40:27;;;;;;;1.50;1.40;;;;;;;19.25;77.83;97612.47;5052987;28;20672;-67
2021/05/26 01:42:53;;;;;;;1.60;1.50;;;;;;;19.24;77.70;97608.16;5051380;28;20220;-67
2021/05/26 01:45:20;;;;;;;1.83;1.33;;;;;;;19.24;77.58;97603.94;5049162;28;20652;-67
2021/05/26 01:47:50;;;;;;;1.67;1.57;;;;;;;19.23;77.70;97601.31;5048171;28;20232;-67
2021/05/26 01:50:20;;;;;;;2.57;1.70;;;;;;;19.22;77.78;97595.34;5051178;28;20301;-67
2021/05/26 01:52:57;;;;;;;3.47;1.70;;;;;;;19.24;77.62;97592.88;5039919;28;20283;-67
2021/05/26 01:55:24;;;;;;;1.83;1.60;;;;;;;19.22;77.72;97590.25;5030660;28;20250;-67
2021/05/26 01:57:51;;;;;;;1.73;1.40;;;;;;;19.23;77.52;97586.91;5051523;28;20312;-67
2021/05/26 02:00:18;;;;;;;1.57;1.20;;;;;;;19.22;77.54;97581.78;5051296;28;20255;-66
2021/05/26 02:02:45;;;;;;;1.57;1.40;;;;;;;19.22;77.38;97582.63;5033699;28;20690;-69
2021/05/26 02:05:12;;;;;;;2.27;1.40;;;;;;;19.22;77.41;97581.78;5049023;28;20232;-67
2021/05/26 02:07:38;;;;;;;1.53;1.40;;;;;;;19.22;77.78;97585.16;5050027;28;20228;-67
2021/05/26 02:10:07;;;;;;;2.40;1.40;;;;;;;19.21;77.52;97573.25;5045841;28;20201;-68
2021/05/26 02:12:36;;;;;;;1.50;1.40;;;;;;;19.21;77.97;97575.78;5047279;28;20221;-67
2021/05/26 02:15:06;;;;;;;1.70;1.50;;;;;;;19.23;77.40;97584.38;5026982;28;20630;-68
2021/05/26 02:17:33;;;;;;;1.57;1.47;;;;;;;19.24;77.41;97569.94;5039722;28;20300;-68
2021/05/26 02:19:59;;;;;;;1.40;1.30;;;;;;;19.23;77.45;97558.91;5044612;28;20255;-68
2021/05/26 02:22:26;;;;;;;2.10;1.60;;;;;;;19.24;77.43;97560.63;5047566;28;20316;-68
2021/05/26 02:24:53;;;;;;;1.50;1.40;;;;;;;19.26;77.38;97560.69;5047145;28;20209;-67
2021/05/26 02:27:19;;;;;;;1.60;1.43;;;;;;;19.26;77.18;97556.47;5022549;28;20297;-68
2021/05/26 02:29:46;;;;;;;1.40;1.30;;;;;;;18.51;77.04;97426.19;5047783;28;20266;-68
2021/05/26 02:32:13;;;;;;;1.90;1.30;;;;;;;19.28;77.10;97681.41;5047632;28;20233;-67
2021/05/26 02:34:39;;;;;;;1.47;1.37;;;;;;;19.29;76.75;97556.63;5023718;28;20740;-68
2021/05/26 02:37:06;;;;;;;1.60;1.30;;;;;;;19.30;76.76;97555.78;5045082;28;20295;-67
2021/05/26 02:39:33;;;;;;;2.30;1.63;;;;;;;15.17;76.39;96888.25;5046203;28;20224;-67
2021/05/26 02:41:59;;;;;;;1.67;1.30;;;;;;;19.32;76.80;97551.63;5046764;28;20224;-66
2021/05/26 02:44:26;;;;;;;1.97;1.43;;;;;;;19.32;76.03;97536.34;5028392;28;20225;-66
2021/05/26 02:46:53;;;;;;;1.57;1.47;;;;;;;19.15;76.63;97663.84;5046915;28;20236;-66
2021/05/26 02:49:19;;;;;;;1.60;1.50;;;;;;;19.35;76.23;97540.69;5028679;28;20626;-66
2021/05/26 02:51:46;;;;;;;2.30;1.60;;;;;;;19.36;76.28;97532.25;5044620;28;20381;-66
2021/05/26 02:54:12;;;;;;;1.60;1.50;;;;;;;19.36;76.05;97534.81;5044434;28;20680;-66
2021/05/26 02:56:39;;;;;;;1.77;1.53;;;;;;;19.37;75.97;97531.44;5045597;28;20257;-66
2021/05/26 02:59:07;;;;;;;1.40;1.30;;;;;;;19.40;75.85;97526.44;5045883;28;20209;-66
2021/05/26 03:01:34;;;;;;;1.47;1.37;;;;;;;19.40;75.75;97531.53;5045521;28;20650;-66
2021/05/26 03:04:01;;;;;;;1.43;1.33;;;;;;;19.40;75.65;97531.53;5046096;28;20294;-66
2021/05/26 03:06:28;;;;;;;1.47;1.37;;;;;;;19.41;75.47;97530.72;5044273;28;20245;-66
2021/05/26 03:08:55;;;;;;;1.50;1.40;;;;;;;19.42;75.48;97525.69;5045813;28;20212;-66
2021/05/26 03:11:21;;;;;;;1.33;1.23;;;;;;;19.42;75.35;97529.94;5046132;28;20296;-65
2021/05/26 03:13:48;;;;;;;1.50;1.40;;;;;;;19.42;75.03;97518.03;5046257;28;20243;-66
2021/05/26 03:16:15;;;;;;;1.70;1.60;;;;;;;19.45;75.11;97524.94;5045553;28;20288;-66
2021/05/26 03:18:43;;;;;;;1.50;1.40;;;;;;;19.45;75.38;97525.78;5042912;28;20603;-66
2021/05/26 03:21:09;;;;;;;1.70;1.33;;;;;;;19.45;75.07;97525.78;5046378;28;20232;-66
2021/05/26 03:23:36;;;;;;;2.00;1.43;;;;;;;19.46;75.14;97529.22;5046346;28;20303;-66
2021/05/26 03:26:03;;;;;;;1.53;1.43;;;;;;;19.46;75.03;97530.09;5046039;28;20208;-66
2021/05/26 03:28:29;;;;;;;1.50;1.40;;;;;;;19.47;74.81;97533.50;5044979;28;20236;-68
2021/05/26 03:30:56;;;;;;;1.57;1.37;;;;;;;19.47;74.73;97536.94;5049100;28;20224;-66
2021/05/26 03:33:22;;;;;;;3.10;1.50;;;;;;;16.89;74.61;97148.38;5034690;28;20328;-67
2021/05/26 03:35:49;;;;;;;1.50;1.40;;;;;;;19.49;74.54;97535.31;5048899;28;20788;-67
2021/05/26 03:38:16;;;;;;;1.57;1.47;;;;;;;19.49;74.60;97535.31;5050615;28;20205;-66
2021/05/26 03:40:42;;;;;;;1.47;1.33;;;;;;;19.50;74.36;97531.06;5051789;28;20244;-67
2021/05/26 03:43:09;;;;;;;1.60;1.40;;;;;;;19.50;74.22;97525.97;5045825;28;20216;-67
2021/05/26 03:45:35;;;;;;;2.00;1.50;;;;;;;19.50;74.21;97521.75;5043646;28;20204;-66
2021/05/26 03:48:02;;;;;;;2.30;1.40;;;;;;;19.51;74.06;97532.81;5055440;28;20229;-67
2021/05/26 03:50:29;;;;;;;1.90;1.53;;;;;;;19.52;74.07;97534.56;5057983;28;20254;-67
2021/05/26 03:52:56;;;;;;;2.63;1.50;;;;;;;19.51;73.88;97532.81;5060155;28;20256;-68
2021/05/26 03:55:23;;;;;;;1.63;1.50;;;;;;;19.51;74.01;97533.66;5053512;28;20259;-68
2021/05/26 03:57:50;;;;;;;3.13;1.40;;;;;;;19.52;73.76;97537.09;5055645;28;20205;-67
2021/05/26 04:00:18;;;;;;;1.40;1.30;;;;;;;19.52;73.82;97537.97;5058006;28;20228;-68
2021/05/26 04:02:44;;;;;;;1.40;1.30;;;;;;;19.53;73.85;97538.81;5055822;28;20330;-68
2021/05/26 04:05:11;;;;;;;1.40;1.30;;;;;;;19.53;73.73;97537.16;5037631;28;20290;-67
2021/05/26 04:07:39;;;;;;;2.47;1.40;;;;;;;19.53;73.54;97531.19;5058680;28;20269;-67
2021/05/26 04:10:06;;;;;;;1.60;1.50;;;;;;;18.89;73.50;97463.31;5059085;28;20204;-67
2021/05/26 04:12:33;;;;;;;1.73;1.30;;;;;;;19.41;73.65;97512.88;5040995;28;20325;-67
2021/05/26 04:15:00;;;;;;;1.70;1.60;;;;;;;19.55;73.22;97535.53;5042611;28;20230;-68
2021/05/26 04:17:26;;;;;;;1.87;1.53;;;;;;;19.55;73.41;97524.47;5057716;28;20205;-67
2021/05/26 04:19:53;;;;;;;1.70;1.50;;;;;;;19.55;73.20;97527.00;5061191;28;20244;-67
2021/05/26 04:22:20;;;;;;;1.40;1.30;;;;;;;19.56;73.72;97533.84;5061879;28;20248;-67
2021/05/26 04:24:46;;;;;;;1.70;1.60;;;;;;;19.55;73.14;97533.00;5053274;28;20197;-67
2021/05/26 04:27:13;;;;;;;1.40;1.30;;;;;;;19.42;73.05;97501.91;5049214;28;20232;-67
2021/05/26 04:29:40;;;;;;;1.30;1.20;;;;;;;19.56;72.80;97523.66;5012567;28;20201;-68
2021/05/26 04:32:06;;;;;;;1.50;1.40;;;;;;;19.57;72.58;97531.34;5049387;28;20309;-67
2021/05/26 04:34:33;;;;;;;2.23;1.50;;;;;;;19.57;72.40;97541.53;5048297;28;20624;-67
2021/05/26 04:36:59;;;;;;;2.20;1.60;;;;;;;19.57;72.48;97526.25;5048946;28;20204;-67
2021/05/26 04:39:26;;;;;;;1.60;1.50;;;;;;;19.58;72.64;97529.69;5049148;28;20648;-67
2021/05/26 04:41:53;;;;;;;2.27;1.50;;;;;;;19.58;72.31;97520.34;5049191;28;20232;-67
2021/05/26 04:44:19;;;;;;;2.27;1.30;;;;;;;19.59;72.20;97523.75;5049224;28;20288;-67
2021/05/26 04:46:46;;;;;;;8.93;1.30;;;;;;;18.31;71.98;97299.81;5047269;28;20236;-67
2021/05/26 04:49:13;;;;;;;1.73;1.50;;;;;;;19.59;72.05;97526.31;5031302;28;20205;-67
2021/05/26 04:51:39;;;;;;;1.63;1.50;;;;;;;19.60;71.95;97520.41;5048773;28;20292;-67
2021/05/26 04:54:06;;;;;;;1.77;1.30;;;;;;;16.23;71.76;96935.06;5048744;28;20299;-67
2021/05/26 04:56:32;;;;;;;5.20;1.30;;;;;;;19.11;72.09;97478.56;5048374;28;20201;-67
2021/05/26 04:58:59;;;;;;;1.47;1.37;;;;;;;17.30;71.63;97123.00;5027689;28;20233;-67
2021/05/26 05:01:25;;;;;;;1.50;1.40;;;;;;;19.60;71.59;97520.41;5048679;28;20197;-67
2021/05/26 05:03:52;;;;;;;1.63;1.37;;;;;;;19.00;71.83;97416.16;5048501;28;20221;-68
2021/05/26 05:06:20;;;;;;;1.50;1.40;;;;;;;19.62;72.05;97528.97;5030645;28;20284;-67
2021/05/26 05:08:48;;;;;;;1.50;1.40;;;;;;;19.35;72.10;97470.22;5048588;28;20212;-67
2021/05/26 05:11:14;;;;;;;1.40;1.30;;;;;;;19.63;72.14;97521.38;5030839;28;20621;-67
2021/05/26 05:13:41;;;;;;;1.63;1.40;;;;;;;19.63;72.01;97523.06;5168956;22;20664;-66
2021/05/26 05:16:08;;;;;;;1.73;1.40;;;;;;;19.64;72.01;97525.69;5063399;28;20229;-66
2021/05/26 05:18:34;;;;;;;1.60;1.50;;;;;;;19.52;71.99;97503.97;5065461;28;20669;-66
2021/05/26 05:21:01;;;;;;;1.57;1.47;;;;;;;19.50;71.87;97503.03;5067309;28;20261;-67
2021/05/26 05:23:27;;;;;;;1.70;1.30;;;;;;;19.65;71.97;97535.06;5058229;28;20308;-66
2021/05/26 05:25:54;;;;;;;2.20;1.30;;;;;;;19.62;71.69;97528.97;5048390;28;20236;-66
2021/05/26 05:28:21;;;;;;;1.40;1.30;;;;;;;19.66;72.00;97528.28;5048053;28;20204;-65
2021/05/26 05:30:47;;;;;;;1.50;1.40;;;;;;;19.35;71.90;97484.63;5048354;28;20266;-65
2021/05/26 05:33:14;;;;;;;1.83;1.40;;;;;;;19.66;71.57;97539.34;5047917;28;20704;-66
2021/05/26 05:35:41;;;;;;;1.93;1.40;;;;;;;19.65;72.10;97542.72;5047947;28;20690;-66
2021/05/26 05:38:07;;;;;;;2.00;1.60;;;;;;;19.63;72.07;97530.72;5048048;28;20267;-65
2021/05/26 05:40:34;;;;;;;1.47;1.37;;;;;;;19.65;72.10;97522.31;5047902;28;20671;-66
2021/05/26 05:43:00;;;;;;;1.30;1.20;;;;;;;19.66;71.76;97515.53;5047719;28;20304;-66
2021/05/26 05:45:27;;;;;;;2.47;1.50;;;;;;;19.66;71.79;97525.75;5048044;28;20724;-65
2021/05/26 05:47:53;;;;;;;1.40;1.30;;;;;;;19.64;72.06;97525.69;5047637;28;20278;-66
2021/05/26 05:50:20;;;;;;;1.33;1.23;;;;;;;19.57;71.84;97510.94;5048047;28;20197;-66
2021/05/26 05:52:50;;;;;;;2.23;1.50;;;;;;;19.60;71.72;97528.06;5047704;28;20233;-66
2021/05/26 05:55:17;;;;;;;1.50;1.40;;;;;;;19.59;71.72;97516.09;5047013;28;20209;-65
2021/05/26 05:57:43;;;;;;;2.17;1.40;;;;;;;19.21;71.86;97468.78;5045879;28;20236;-66
2021/05/26 06:00:10;;;;;;;1.50;1.37;;;;;;;18.93;71.98;97417.63;5047601;28;20232;-66
2021/05/26 06:02:37;;;;;;;4.60;1.53;;;;;;;19.20;71.99;97461.97;5040570;28;20694;-65
2021/05/26 06:05:05;;;;;;;1.47;1.33;;;;;;;19.55;72.23;97511.72;5047716;28;20205;-66
2021/05/26 06:07:32;;;;;;;1.70;1.40;;;;;;;19.54;72.19;97512.53;5047621;28;20708;-66
2021/05/26 06:09:59;;;;;;;1.43;1.33;;;;;;;19.55;72.10;97514.28;5047517;28;20263;-65
2021/05/26 06:12:26;;;;;;;1.30;1.20;;;;;;;19.38;72.45;97492.38;5046101;28;20270;-67
2021/05/26 06:14:52;;;;;;;1.50;1.30;;;;;;;19.55;72.33;97524.47;5046918;28;20244;-66
2021/05/26 06:17:19;;;;;;;1.43;1.33;;;;;;;19.54;72.11;97515.94;5046877;28;20228;-66
2021/05/26 06:19:45;;;;;;;2.97;1.30;;;;;;;19.55;72.43;97514.28;5047122;28;20316;-66
2021/05/26 06:22:12;;;;;;;1.37;1.27;;;;;;;19.53;72.54;97508.25;5047217;28;20279;-66
2021/05/26 06:24:38;;;;;;;1.20;1.20;;;;;;;19.54;72.58;97510.00;5046928;28;20244;-66
2021/05/26 06:27:05;;;;;;;1.50;1.40;;;;;;;19.55;72.26;97504.97;5046921;28;20651;-66
2021/05/26 06:29:32;;;;;;;2.50;1.60;;;;;;;19.53;72.19;97496.38;5046892;28;20205;-66
2021/05/26 06:31:59;;;;;;;1.43;1.33;;;;;;;19.45;71.78;97490.13;5046970;28;20201;-67
2021/05/26 06:34:25;;;;;;;1.40;1.30;;;;;;;18.72;72.20;97365.03;5046956;28;20307;-67
2021/05/26 06:36:52;;;;;;;1.43;1.33;;;;;;;19.55;72.49;97516.81;5045157;28;20205;-67
2021/05/26 06:39:18;;;;;;;1.70;1.43;;;;;;;19.53;72.11;97504.03;5045673;28;20244;-66
2021/05/26 06:41:45;;;;;;;1.37;1.27;;;;;;;19.53;72.45;97505.69;5046616;28;20553;-66
2021/05/26 06:44:11;;;;;;;1.07;1.07;;;;;;;19.36;72.17;97478.75;5045224;28;20972;-66
2021/05/26 06:46:39;;;;;;;1.40;1.30;;;;;;;19.50;72.14;97495.38;5046601;28;20578;-66
2021/05/26 06:49:06;;;;;;;1.37;1.27;;;;;;;19.53;72.25;97505.69;5046809;28;20282;-66
2021/05/26 06:51:33;;;;;;;1.40;1.30;;;;;;;19.50;72.31;97505.56;5046797;28;20290;-66
2021/05/26 06:54:00;;;;;;;2.13;1.30;;;;;;;19.21;72.23;97456.06;5045132;28;20278;-67
2021/05/26 06:56:26;;;;;;;1.40;1.30;;;;;;;19.47;72.41;97508.88;5044711;28;20701;-67
2021/05/26 06:58:53;;;;;;;3.63;1.67;;;;;;;19.47;72.44;97510.56;5046691;28;20288;-67
2021/05/26 07:01:24;;;;;;;1.43;1.20;;;;;;;19.46;72.28;97516.47;5046810;28;20197;-66
2021/05/26 07:03:50;;;;;;;1.50;1.40;;;;;;;19.45;72.65;97507.09;5046164;28;20714;-67
2021/05/26 07:06:17;;;;;;;2.30;1.50;;;;;;;19.45;72.66;97509.66;5042632;28;20255;-65
2021/05/26 07:08:44;;;;;;;1.67;1.30;;;;;;;19.43;72.71;97508.72;5046193;28;20205;-67
2021/05/26 07:11:10;;;;;;;1.50;1.23;;;;;;;19.45;72.80;97527.50;5046111;28;21535;-65
2021/05/26 07:13:38;;;;;;;1.93;1.40;;;;;;;19.45;72.67;97518.16;5042451;28;20229;-67
2021/05/26 07:16:05;;;;;;;1.90;1.50;;;;;;;19.45;72.70;97517.31;5046575;28;20232;-67
2021/05/26 07:18:33;;;;;;;3.37;1.40;;;;;;;19.46;72.62;97511.38;5046626;28;20284;-66
2021/05/26 07:21:01;;;;;;;2.53;1.60;;;;;;;19.46;72.72;97511.38;5046612;28;20208;-66
2021/05/26 07:23:27;;;;;;;1.40;1.30;;;;;;;19.30;72.74;97478.50;5046179;28;20271;-65
2021/05/26 07:25:54;;;;;;;1.83;1.50;;;;;;;19.47;72.55;97505.47;5045088;28;20201;-67
2021/05/26 07:28:21;;;;;;;1.60;1.30;;;;;;;19.46;72.61;97507.16;5046045;28;20268;-66
2021/05/26 07:30:47;;;;;;;1.50;1.40;;;;;;;19.46;72.73;97502.06;5046588;28;20292;-65
2021/05/26 07:33:14;;;;;;;2.03;1.47;;;;;;;19.46;72.48;97496.97;5045777;28;20221;-66
2021/05/26 07:35:41;;;;;;;1.37;1.27;;;;;;;19.47;72.13;97497.81;5046272;28;20232;-67
2021/05/26 07:38:27;;;;;;;1.40;1.30;;;;;;;19.38;72.46;97508.56;5041883;28;20212;-66
2021/05/26 07:40:54;;;;;;;1.60;1.50;;;;;;;19.45;72.55;97518.16;5045546;28;21002;-66
2021/05/26 07:43:21;;;;;;;1.30;1.20;;;;;;;19.43;72.69;97531.66;5046452;28;20217;-66
2021/05/26 07:45:49;;;;;;;1.33;1.23;;;;;;;19.40;72.69;97517.13;5049463;28;20212;-65
2021/05/26 07:48:16;;;;;;;1.67;1.37;;;;;;;19.43;72.74;97521.47;5046871;28;20726;-67
2021/05/26 07:50:43;;;;;;;1.50;1.40;;;;;;;19.25;73.08;97485.06;5048141;28;20205;-65
2021/05/26 07:53:10;;;;;;;1.30;1.20;;;;;;;19.11;73.00;97453.97;5047854;28;20685;-66
2021/05/26 07:55:37;;;;;;;2.57;1.50;;;;;;;19.25;72.82;97467.25;5028094;28;20202;-67
2021/05/26 07:58:03;;;;;;;1.77;1.33;;;;;;;19.03;72.93;97426.47;5041196;28;20204;-66
2021/05/26 08:00:30;;;;;;;2.33;1.40;;;;;;;19.08;73.45;97425.84;5046980;28;20832;-66
2021/05/26 08:02:56;;;;;;;1.50;1.40;;;;;;;19.24;73.10;97448.53;5044694;28;20298;-66
2021/05/26 08:05:24;;;;;;;1.73;1.30;;;;;;;18.95;73.17;97398.16;5048963;28;20303;-66
2021/05/26 08:07:51;;;;;;;1.73;1.50;;;;;;;19.42;73.15;97468.78;5031221;28;20254;-66
2021/05/26 08:10:18;;;;;;;2.20;1.40;;;;;;;19.42;73.20;97472.16;5046217;28;20205;-65
2021/05/26 08:12:44;;;;;;;1.70;1.40;;;;;;;19.13;73.00;97420.94;5047030;28;20224;-66
2021/05/26 08:15:13;;;;;;;1.40;1.30;;;;;;;19.42;73.11;97461.97;5047249;28;20221;-66
2021/05/26 08:17:39;;;;;;;1.93;1.30;;;;;;;19.43;73.12;97473.03;5049069;28;20581;-66
2021/05/26 08:20:07;;;;;;;2.67;1.67;;;;;;;19.44;73.21;97469.66;5048757;28;20292;-67
2021/05/26 08:22:33;;;;;;;3.70;1.60;;;;;;;19.44;73.17;97465.44;5046568;28;20904;-67
2021/05/26 08:25:01;;;;;;;1.83;1.50;;;;;;;19.44;73.08;97450.16;5048019;28;20592;-66
2021/05/26 08:27:27;;;;;;;2.10;1.23;;;;;;;19.10;72.97;97398.75;5048252;28;20287;-65
2021/05/26 08:29:55;;;;;;;2.17;1.60;;;;;;;19.41;73.00;97452.59;5045715;28;20286;-67
2021/05/26 08:32:24;;;;;;;1.70;1.23;;;;;;;19.40;72.98;97450.88;5049463;28;20228;-66
2021/05/26 08:34:53;;;;;;;1.60;1.50;;;;;;;19.39;73.10;97453.38;5048680;28;20225;-67
2021/05/26 08:37:19;;;;;;;2.03;1.60;;;;;;;19.40;73.18;97460.19;5047617;28;20236;-65
2021/05/26 08:39:46;;;;;;;1.97;1.40;;;;;;;19.38;73.09;97449.06;5048645;28;20729;-66
2021/05/26 08:42:15;;;;;;;1.63;1.40;;;;;;;19.01;73.39;97389.91;5044217;28;20201;-66
2021/05/26 08:44:42;;;;;;;1.77;1.50;;;;;;;19.24;73.50;97432.34;5046933;28;20553;-66
2021/05/26 08:47:09;;;;;;;1.50;1.40;;;;;;;19.40;73.85;97444.91;5048887;28;20292;-66
2021/05/26 08:49:35;;;;;;;1.63;1.40;;;;;;;19.40;73.44;97444.91;5038562;28;20970;-66
2021/05/26 08:52:02;;;;;;;3.17;1.47;;;;;;;19.40;73.39;97443.22;5045840;28;20205;-66
2021/05/26 08:54:28;;;;;;;1.97;1.40;;;;;;;19.39;73.22;97444.03;5047988;28;20484;-66
2021/05/26 08:56:55;;;;;;;1.63;1.53;;;;;;;19.41;73.27;97436.44;5048440;28;20722;-67
2021/05/26 08:59:23;;;;;;;1.57;1.47;;;;;;;19.41;73.88;97441.53;5047419;28;20236;-66
2021/05/26 09:01:50;;;;;;;1.30;1.20;;;;;;;19.09;73.43;97363.91;5048557;28;20288;-67
2021/05/26 09:04:27;;;;;;;2.17;1.43;;;;;;;19.41;73.38;97424.56;5044790;28;20213;-66
2021/05/26 09:07:17;;;;;;;1.97;1.70;;;;;;;19.42;73.38;97417.81;5045080;28;20205;-66
2021/05/26 09:09:49;;;;;;;2.20;1.50;;;;;;;19.42;73.49;97418.66;5045246;28;20281;-65
2021/05/26 09:12:30;;;;;;;2.30;1.40;;;;;;;19.41;73.48;97416.91;5048545;28;20214;-66
2021/05/26 09:15:16;;;;;;;1.73;1.53;;;;;;;18.40;73.31;97235.72;5046136;28;20252;-66
2021/05/26 09:17:44;;;;;;;1.50;1.40;;;;;;;19.39;73.45;97402.41;5044563;28;20290;-66
2021/05/26 09:20:10;;;;;;;1.50;1.40;;;;;;;19.39;73.18;97385.41;5048587;28;20813;-66
2021/05/26 09:22:37;;;;;;;1.50;1.40;;;;;;;19.38;73.35;97396.44;5046699;28;20237;-65
2021/05/26 09:25:08;;;;;;;1.33;1.23;;;;;;;19.07;73.60;97341.75;5048369;28;20205;-67
2021/05/26 09:27:35;;;;;;;1.47;1.37;;;;;;;19.38;73.38;97390.44;5045983;28;20244;-66
2021/05/26 09:30:02;;;;;;;2.40;1.67;;;;;;;19.37;73.19;97387.06;5046781;28;20205;-66
2021/05/26 09:32:31;;;;;;;2.13;1.70;;;;;;;19.38;72.99;97387.91;5048861;28;20208;-66
2021/05/26 09:34:58;;;;;;;3.97;1.70;;;;;;;19.38;73.02;97381.13;5047497;28;20233;-65
2021/05/26 09:37:29;;;;;;;1.87;1.53;;;;;;;19.39;73.15;97380.31;5048038;28;20232;-67
2021/05/26 09:40:07;;;;;;;1.53;1.43;;;;;;;19.39;73.44;97374.38;5046381;28;20229;-66
2021/05/26 09:42:45;;;;;;;3.00;1.63;;;;;;;19.26;73.53;97349.22;5047013;28;20204;-67
2021/05/26 09:45:15;;;;;;;3.47;1.70;;;;;;;19.40;73.52;97365.91;5046311;28;20281;-66
2021/05/26 09:47:50;;;;;;;4.07;1.80;;;;;;;19.39;73.52;97446.56;5047720;28;20258;-66
2021/05/26 09:50:17;;;;;;;2.97;1.83;;;;;;;19.40;73.45;97376.97;5047131;28;20210;-66
2021/05/26 09:53:03;;;;;;;3.87;1.97;;;;;;;19.41;73.12;97370.16;5046172;28;20307;-65
2021/05/26 09:55:32;;;;;;;1.80;1.63;;;;;;;19.40;73.20;97365.91;5045629;28;20712;-66
2021/05/26 09:57:58;;;;;;;4.73;2.20;;;;;;;19.40;73.14;97353.16;5047321;28;20201;-64
2021/05/26 10:00:26;;;;;;;3.00;1.80;;;;;;;19.40;73.08;97371.88;5047410;28;20250;-66
2021/05/26 10:02:52;;;;;;;3.77;1.80;;;;;;;19.39;73.22;97359.94;5043668;28;20293;-66
2021/05/26 10:05:20;;;;;;;2.17;1.80;;;;;;;19.38;73.02;97348.00;5046337;28;20232;-65
2021/05/26 10:07:51;;;;;;;2.07;1.87;;;;;;;19.37;73.10;97361.56;5052489;28;20213;-66
2021/05/26 10:10:19;;;;;;;9.57;1.70;;;;;;;19.38;73.17;97359.88;5045244;28;20638;-64
2021/05/26 10:12:51;;;;;;;14.60;2.10;;;;;;;19.08;73.28;97310.34;5041805;28;20307;-65
2021/05/26 10:15:18;;;;;;;2.23;1.63;;;;;;;19.35;73.58;97352.13;5035019;28;20220;-65
2021/05/26 10:17:49;;;;;;;2.67;1.60;;;;;;;19.36;73.77;97362.38;5047159;28;20204;-65
2021/05/26 10:20:27;;;;;;;3.23;1.97;;;;;;;19.04;73.71;97304.28;5047336;28;20207;-66
2021/05/26 10:22:55;;;;;;;2.83;1.77;;;;;;;19.36;73.94;97352.16;5045902;28;20224;-65
2021/05/26 10:25:22;;;;;;;1.77;1.60;;;;;;;19.37;74.17;97356.47;5045730;28;20275;-65
2021/05/26 10:27:50;;;;;;;3.20;1.67;;;;;;;18.02;73.79;97122.38;5046832;28;20307;-66
2021/05/26 10:30:18;;;;;;;2.13;1.70;;;;;;;19.39;74.18;97359.09;5045949;28;20323;-65
2021/05/26 10:32:49;;;;;;;2.80;1.57;;;;;;;19.06;74.12;97304.34;5045992;28;20248;-65
2021/05/26 10:35:15;;;;;;;4.33;1.70;;;;;;;19.41;74.24;97367.63;5046555;28;20316;-66
2021/05/26 10:37:43;;;;;;;2.10;1.80;;;;;;;19.39;74.20;97362.47;5045506;28;20251;-64
2021/05/26 10:40:31;;;;;;;1.77;1.57;;;;;;;19.42;74.19;97375.31;5047076;28;20300;-65
2021/05/26 10:43:13;;;;;;;3.67;1.80;;;;;;;19.42;74.07;97371.94;5044519;28;20264;-65
2021/05/26 10:45:39;;;;;;;2.67;1.90;;;;;;;18.20;73.94;97163.75;5042481;28;20236;-65
2021/05/26 10:48:06;;;;;;;1.70;1.60;;;;;;;19.40;74.08;97374.41;5045010;28;20290;-65
2021/05/26 10:50:49;;;;;;;2.70;1.80;;;;;;;19.39;74.00;97367.56;5045522;28;20236;-66
2021/05/26 10:53:17;;;;;;;1.60;1.50;;;;;;;18.95;73.74;97298.84;5043847;28;20229;-65
2021/05/26 10:55:47;;;;;;;2.57;1.80;;;;;;;19.39;73.75;97476.31;5025816;28;20256;-65
2021/05/26 10:58:30;;;;;;;1.90;1.70;;;;;;;19.38;73.87;97373.50;5044526;28;20578;-65
2021/05/26 11:01:00;;;;;;;2.70;1.77;;;;;;;19.36;74.18;97375.09;5046624;28;20300;-65
2021/05/26 11:03:35;;;;;;;2.73;1.63;;;;;;;19.36;73.93;97374.25;5046643;28;20387;-65
2021/05/26 11:06:28;;;;;;;2.43;1.80;;;;;;;19.36;74.33;97375.09;5044285;28;20550;-65
2021/05/26 11:08:55;;;;;;;2.57;1.70;;;;;;;17.78;74.27;97102.03;5037899;28;20266;-65
2021/05/26 11:11:39;;;;;;;1.83;1.57;;;;;;;19.36;74.35;97370.00;5044439;28;20211;-64
2021/05/26 11:14:06;;;;;;;2.50;1.83;;;;;;;19.38;73.94;97372.63;5054527;22;20228;-66
2021/05/26 11:16:44;;;;;;;1.50;1.40;;;;;;;19.38;74.59;97377.72;5010956;28;20710;-66
2021/05/26 11:19:16;;;;;;;1.77;1.50;;;;;;;17.74;74.27;97128.09;5012344;28;20213;-66
2021/05/26 11:22:01;;;;;;;3.00;1.80;;;;;;;19.39;74.40;97380.31;5010466;28;20801;-66
2021/05/26 11:24:29;;;;;;;1.97;1.60;;;;;;;19.22;74.38;97355.03;4990763;28;20450;-66
2021/05/26 11:26:56;;;;;;;1.63;1.53;;;;;;;19.40;74.49;97387.16;4990564;28;20255;-66
2021/05/26 11:29:38;;;;;;;1.70;1.60;;;;;;;19.41;74.39;97390.56;5011792;28;20202;-66
2021/05/26 11:32:14;;;;;;;2.03;1.70;;;;;;;19.24;74.41;97361.91;5019814;28;20248;-66
2021/05/26 11:34:43;;;;;;;2.13;1.80;;;;;;;19.40;74.14;97388.84;5007448;28;20225;-66
2021/05/26 11:37:10;;;;;;;1.93;1.73;;;;;;;19.39;74.29;97404.94;5025190;28;20205;-66
2021/05/26 11:39:36;;;;;;;1.60;1.50;;;;;;;19.38;74.11;97416.81;4991611;28;20237;-66